Time;durP1;ratioP1;P1;durP2;ratioP2;P2;SDS_P1;SDS_P2;PMS_P1;PMS_P2;Temp;Humidity;BMP_temperature;BMP_pressure;BME280_temperature;BME280_humidity;BME280_pressure;Samples;Min_cycle;Max_cycle;Signal;HPM_P1;HPM_P2
2021/12/26 00:00:11;;;;;;;7.20;6.60;;;;;;;-6.73;92.64;101425.69;5031705;28;21008;-42
2021/12/26 00:02:40;;;;;;;7.07;6.57;;;;;;;-6.72;92.49;101418.75;5031139;28;20484;-42
2021/12/26 00:05:10;;;;;;;7.33;6.80;;;;;;;-6.75;92.35;101422.34;5031688;28;20487;-43
2021/12/26 00:07:38;;;;;;;7.10;6.70;;;;;;;-6.77;92.36;101432.78;5031488;28;20442;-42
2021/12/26 00:10:09;;;;;;;7.00;6.60;;;;;;;-6.77;92.34;101434.53;5031451;28;20467;-43
2021/12/26 00:12:37;;;;;;;6.97;6.57;;;;;;;-6.80;91.99;101432.06;5030997;28;20468;-42
2021/12/26 00:15:06;;;;;;;7.20;6.70;;;;;;;-6.81;92.17;101435.59;5031739;28;20482;-45
2021/12/26 00:17:33;;;;;;;7.83;7.33;;;;;;;-6.84;91.99;101433.13;5031695;28;20441;-46
2021/12/26 00:20:01;;;;;;;6.33;5.93;;;;;;;-6.85;91.93;101439.22;5031321;28;20474;-42
2021/12/26 00:22:30;;;;;;;6.10;5.70;;;;;;;-6.87;92.07;101439.28;5030993;28;20984;-42
2021/12/26 00:24:58;;;;;;;7.73;7.00;;;;;;;-6.88;92.00;101439.34;5031328;28;20948;-42
2021/12/26 00:27:26;;;;;;;7.17;6.47;;;;;;;-6.90;92.17;101428.22;5031321;28;20531;-42
2021/12/26 00:29:53;;;;;;;7.90;7.10;;;;;;;-6.93;92.22;101426.59;5031419;28;20543;-47
2021/12/26 00:32:21;;;;;;;7.87;7.17;;;;;;;-6.95;92.03;101435.34;5030870;28;20456;-43
2021/12/26 00:34:50;;;;;;;7.70;7.30;;;;;;;-6.97;91.98;101437.19;5031080;28;20484;-43
2021/12/26 00:37:19;;;;;;;8.83;8.13;;;;;;;-7.00;91.84;101426.94;5031381;28;20544;-43
2021/12/26 00:39:48;;;;;;;8.33;7.17;;;;;;;-7.04;92.25;101428.81;5031328;28;20539;-44
2021/12/26 00:42:15;;;;;;;7.60;7.20;;;;;;;-7.04;92.39;101425.38;5030867;28;20478;-42
2021/12/26 00:44:43;;;;;;;7.93;7.40;;;;;;;-7.03;92.59;101427.09;5031180;28;20460;-43
2021/12/26 00:47:12;;;;;;;7.20;6.70;;;;;;;-7.02;92.97;101426.19;5031150;28;20440;-42
2021/12/26 00:49:41;;;;;;;7.93;6.90;;;;;;;-7.00;93.16;101432.97;5031283;28;21157;-42
2021/12/26 00:52:09;;;;;;;7.90;7.30;;;;;;;-6.98;92.96;101430.31;5030571;28;20436;-42
2021/12/26 00:54:37;;;;;;;7.47;6.87;;;;;;;-6.96;93.31;101433.69;5031220;28;20472;-43
2021/12/26 00:57:06;;;;;;;8.60;7.73;;;;;;;-6.93;93.14;101441.31;5034869;28;20434;-43
2021/12/26 00:59:34;;;;;;;7.67;7.10;;;;;;;-6.90;93.02;101433.41;5034740;28;20478;-42
2021/12/26 01:02:01;;;;;;;6.60;6.30;;;;;;;-6.89;93.27;101445.44;5034137;28;20436;-43
2021/12/26 01:04:29;;;;;;;7.17;6.70;;;;;;;-6.87;93.24;101443.66;5034730;28;20468;-43
2021/12/26 01:06:58;;;;;;;7.57;6.93;;;;;;;-6.87;93.05;101441.88;5034942;28;20516;-43
2021/12/26 01:09:29;;;;;;;8.10;7.47;;;;;;;-6.86;92.66;101445.31;5034677;28;20598;-43
2021/12/26 01:12:00;;;;;;;8.60;7.70;;;;;;;-6.89;92.47;101451.47;5034180;28;20511;-45
2021/12/26 01:14:31;;;;;;;6.90;6.50;;;;;;;-6.90;92.64;101452.38;5034282;28;20476;-43
2021/12/26 01:17:07;;;;;;;7.57;7.10;;;;;;;-6.91;92.35;101445.53;5034416;28;20428;-45
2021/12/26 01:19:43;;;;;;;7.63;6.83;;;;;;;-6.92;92.30;101445.59;5034392;28;20527;-45
2021/12/26 01:22:12;;;;;;;7.40;6.83;;;;;;;-6.93;92.58;101446.50;5034064;28;20515;-43
2021/12/26 01:24:39;;;;;;;7.30;6.87;;;;;;;-6.96;91.96;101446.66;5034184;28;20439;-43
2021/12/26 01:27:08;;;;;;;7.90;7.47;;;;;;;-6.96;92.02;101451.84;5034776;28;20432;-45
2021/12/26 01:29:37;;;;;;;7.17;6.67;;;;;;;-6.98;92.13;101454.47;5034332;28;21024;-45
2021/12/26 01:32:06;;;;;;;7.03;6.63;;;;;;;-6.99;91.93;101450.19;5033906;28;20537;-45
2021/12/26 01:34:34;;;;;;;8.47;7.80;;;;;;;-7.01;92.09;101454.63;5033757;28;21072;-45
2021/12/26 01:37:01;;;;;;;9.03;7.70;;;;;;;-7.01;92.16;101451.19;5034047;28;20458;-45
2021/12/26 01:39:29;;;;;;;8.60;8.00;;;;;;;-7.02;91.94;101462.47;5033832;28;20882;-45
2021/12/26 01:42:01;;;;;;;7.50;7.10;;;;;;;-7.02;92.01;101472.84;5033629;28;20539;-44
2021/12/26 01:44:29;;;;;;;8.93;8.13;;;;;;;-7.01;92.06;101469.31;5033908;28;20424;-45
2021/12/26 01:46:58;;;;;;;8.37;7.67;;;;;;;-7.01;92.29;101469.31;5033991;28;20432;-44
2021/12/26 01:49:29;;;;;;;8.40;7.80;;;;;;;-7.00;92.12;101468.41;5033743;28;20543;-46
2021/12/26 01:52:04;;;;;;;8.87;8.20;;;;;;;-7.00;92.02;101463.25;5033315;28;20447;-46
2021/12/26 01:54:38;;;;;;;8.03;7.30;;;;;;;-6.99;92.48;101457.97;5033410;28;20476;-42
2021/12/26 01:57:10;;;;;;;9.87;8.67;;;;;;;-6.97;92.42;101455.31;5033721;28;20995;-43
2021/12/26 01:59:39;;;;;;;8.90;8.27;;;;;;;-6.96;92.29;101455.25;5033621;28;20459;-46
2021/12/26 02:02:09;;;;;;;9.13;8.40;;;;;;;-6.94;92.63;101450.84;5032967;28;20428;-45
2021/12/26 02:04:38;;;;;;;7.20;6.80;;;;;;;-6.91;92.37;101455.06;5033417;28;20527;-41
2021/12/26 02:07:07;;;;;;;9.33;8.67;;;;;;;-6.91;92.53;101455.91;5032309;28;20439;-42
2021/12/26 02:09:36;;;;;;;9.80;9.03;;;;;;;-6.90;92.48;101454.16;5049716;22;20576;-42
2021/12/26 02:12:05;;;;;;;8.97;8.07;;;;;;;-6.91;92.65;101445.53;5016950;28;20439;-43
2021/12/26 02:14:34;;;;;;;8.23;7.67;;;;;;;-6.94;92.32;101453.44;5033035;28;20472;-45
2021/12/26 02:17:01;;;;;;;8.60;7.80;;;;;;;-6.95;92.21;101448.31;5021222;28;20437;-44
2021/12/26 02:19:30;;;;;;;9.13;8.33;;;;;;;-6.98;92.31;101451.88;5013315;28;21053;-43
2021/12/26 02:22:06;;;;;;;15.80;9.03;;;;;;;-6.98;92.01;101456.22;5013165;28;20459;-42
2021/12/26 02:24:56;;;;;;;8.40;7.90;;;;;;;-7.01;92.13;101448.59;5013418;28;20516;-43
2021/12/26 02:27:31;;;;;;;9.03;8.20;;;;;;;-7.03;91.83;101453.00;5013425;28;20447;-43
2021/12/26 02:30:00;;;;;;;9.93;8.90;;;;;;;-7.06;91.86;101455.72;5013658;28;20536;-43
2021/12/26 02:32:29;;;;;;;9.10;8.27;;;;;;;-7.08;92.55;101453.22;5013193;28;20551;-43
2021/12/26 02:34:58;;;;;;;9.10;8.40;;;;;;;-7.10;92.50;101452.44;5013326;28;20845;-44
2021/12/26 02:37:28;;;;;;;8.73;8.13;;;;;;;-7.14;91.91;101447.47;5013252;28;20480;-44
2021/12/26 02:39:56;;;;;;;8.80;8.10;;;;;;;-7.19;92.16;101439.03;5012997;28;20480;-42
2021/12/26 02:42:24;;;;;;;9.50;8.80;;;;;;;-7.23;91.89;101445.28;5012711;28;20981;-42
2021/12/26 02:44:52;;;;;;;7.90;7.50;;;;;;;-7.26;91.93;101437.63;5013216;28;20871;-43
2021/12/26 02:47:31;;;;;;;9.23;8.30;;;;;;;-7.29;92.34;101442.00;5013026;28;20440;-43
2021/12/26 02:50:00;;;;;;;10.67;9.57;;;;;;;-7.30;92.46;101436.91;5012992;28;20452;-42
2021/12/26 02:52:29;;;;;;;9.70;8.80;;;;;;;-7.34;92.17;101433.59;5012620;28;20597;-43
2021/12/26 02:54:58;;;;;;;11.03;8.83;;;;;;;-7.33;92.49;101424.94;5013008;28;20474;-42
2021/12/26 02:57:28;;;;;;;9.30;8.50;;;;;;;-7.34;92.45;101427.56;5013050;28;20433;-44
2021/12/26 02:59:56;;;;;;;9.57;8.90;;;;;;;-7.36;92.84;101435.44;5012698;28;20544;-42
2021/12/26 03:02:23;;;;;;;12.90;9.50;;;;;;;-7.33;92.50;101429.28;5012233;28;20459;-42
2021/12/26 03:04:51;;;;;;;9.80;8.90;;;;;;;-7.35;92.68;101416.38;5012664;28;20433;-42
2021/12/26 03:07:19;;;;;;;10.27;9.50;;;;;;;-7.35;92.60;101418.97;5012912;28;20437;-45
2021/12/26 03:09:49;;;;;;;11.30;10.37;;;;;;;-7.36;92.72;101424.22;5012619;28;20475;-41
2021/12/26 03:12:17;;;;;;;9.60;8.93;;;;;;;-7.36;92.64;101419.03;5012169;28;20464;-43
2021/12/26 03:14:45;;;;;;;10.20;9.17;;;;;;;-7.37;92.39;101422.53;5012239;28;20473;-42
2021/12/26 03:17:13;;;;;;;9.20;8.70;;;;;;;-7.39;92.68;101429.53;5012203;28;20526;-42
2021/12/26 03:19:40;;;;;;;10.20;9.13;;;;;;;-7.40;92.65;101428.69;5012424;28;20814;-42
2021/12/26 03:22:08;;;;;;;9.60;8.67;;;;;;;-7.42;92.78;101435.69;5012276;28;20515;-43
2021/12/26 03:24:38;;;;;;;10.43;9.40;;;;;;;-7.46;92.33;101426.38;5012307;28;20437;-43
2021/12/26 03:27:07;;;;;;;11.17;10.27;;;;;;;-7.51;92.30;101422.28;5012479;28;20533;-43
2021/12/26 03:29:35;;;;;;;10.57;9.57;;;;;;;-7.55;92.01;101421.56;5012221;28;20539;-44
2021/12/26 03:32:03;;;;;;;10.37;9.57;;;;;;;-7.56;92.19;101419.06;5011869;28;20429;-46
2021/12/26 03:34:31;;;;;;;10.73;9.73;;;;;;;-7.58;92.50;101423.44;5012053;28;20437;-42
2021/12/26 03:36:59;;;;;;;12.20;11.10;;;;;;;-7.63;92.04;101413.28;5012242;28;20927;-42
2021/12/26 03:39:27;;;;;;;11.10;10.13;;;;;;;-7.69;92.19;101417.88;5012278;28;20461;-42
2021/12/26 03:41:54;;;;;;;17.03;11.03;;;;;;;-7.71;91.98;101422.31;5011785;28;20437;-43
2021/12/26 03:44:23;;;;;;;11.90;10.53;;;;;;;-7.76;92.31;101419.88;5011992;28;20459;-42
2021/12/26 03:46:51;;;;;;;11.40;10.47;;;;;;;-7.77;92.39;101423.41;5012303;28;20436;-44
2021/12/26 03:49:19;;;;;;;13.53;12.23;;;;;;;-7.78;92.32;101426.88;5013411;28;20468;-41
2021/12/26 03:51:46;;;;;;;14.67;11.70;;;;;;;-7.77;92.58;101427.72;5013420;28;20444;-42
2021/12/26 03:54:14;;;;;;;13.73;10.37;;;;;;;-7.77;93.11;101422.56;5011610;28;20552;-43
2021/12/26 03:56:43;;;;;;;12.63;11.47;;;;;;;-7.76;92.97;101429.44;5011941;28;20500;-42
2021/12/26 03:59:11;;;;;;;11.70;10.70;;;;;;;-7.76;93.17;101421.66;5012174;28;20461;-42
2021/12/26 04:01:40;;;;;;;11.37;10.47;;;;;;;-7.75;92.70;101436.28;5012188;28;20435;-42
2021/12/26 04:04:08;;;;;;;9.47;8.60;;;;;;;-7.76;92.89;101427.66;5011353;28;20560;-43
2021/12/26 04:06:39;;;;;;;11.07;10.10;;;;;;;-7.75;93.46;101428.50;5012079;28;20429;-45
2021/12/26 04:09:07;;;;;;;10.13;9.33;;;;;;;-7.75;93.37;101437.13;5011725;28;20503;-46
2021/12/26 04:11:35;;;;;;;10.30;9.60;;;;;;;-7.73;93.46;101430.13;5012313;28;20413;-42
2021/12/26 04:14:03;;;;;;;12.03;10.93;;;;;;;-7.70;93.37;101437.75;5011309;28;20504;-45
2021/12/26 04:16:31;;;;;;;10.90;10.00;;;;;;;-7.69;93.40;101436.84;5011777;28;20476;-43
2021/12/26 04:19:00;;;;;;;11.30;10.47;;;;;;;-7.68;93.05;101433.38;5011893;28;20528;-42
2021/12/26 04:21:27;;;;;;;10.40;9.30;;;;;;;-7.68;93.14;101440.28;5012174;28;20437;-46
2021/12/26 04:23:55;;;;;;;11.83;10.63;;;;;;;-7.69;92.98;101434.28;5011097;28;20837;-41
2021/12/26 04:26:23;;;;;;;11.53;10.63;;;;;;;-7.69;92.96;101431.69;5011876;28;20433;-42
2021/12/26 04:28:51;;;;;;;10.47;9.67;;;;;;;-7.71;92.91;101424.88;5011866;28;20437;-43
2021/12/26 04:31:19;;;;;;;12.53;9.90;;;;;;;-7.75;93.02;101429.34;5014753;28;20440;-43
2021/12/26 04:33:46;;;;;;;11.63;10.43;;;;;;;-7.78;92.74;101426.88;5014913;28;20533;-44
2021/12/26 04:36:16;;;;;;;10.30;9.60;;;;;;;-7.82;92.73;101425.31;5015422;28;20477;-44
2021/12/26 04:38:44;;;;;;;10.83;9.80;;;;;;;-7.85;92.79;101428.03;5015386;28;20504;-42
2021/12/26 04:41:12;;;;;;;10.83;9.83;;;;;;;-7.89;92.35;101429.09;5015705;28;20532;-42
2021/12/26 04:43:40;;;;;;;12.53;11.63;;;;;;;-7.93;92.39;101420.59;5014758;28;20556;-43
2021/12/26 04:46:10;;;;;;;10.47;9.40;;;;;;;-7.98;92.35;101432.91;5015397;28;20431;-44
2021/12/26 04:48:40;;;;;;;11.57;10.57;;;;;;;-8.02;91.98;101425.31;5015289;28;20448;-42
2021/12/26 04:51:10;;;;;;;9.60;8.83;;;;;;;-8.06;91.74;101431.50;5015274;28;20440;-43
2021/12/26 04:53:40;;;;;;;10.30;9.60;;;;;;;-8.11;91.87;101423.94;5014607;28;20467;-42
2021/12/26 04:56:08;;;;;;;11.67;10.53;;;;;;;-8.12;92.00;101426.59;5015181;28;20477;-42
2021/12/26 04:58:36;;;;;;;10.13;9.33;;;;;;;-8.14;92.03;101428.38;5015182;28;20459;-42
2021/12/26 05:01:05;;;;;;;11.43;10.47;;;;;;;-8.17;92.21;101429.34;5014876;28;20977;-42
2021/12/26 05:03:33;;;;;;;11.13;10.00;;;;;;;-8.21;91.72;101432.94;5014329;28;20460;-43
2021/12/26 05:06:01;;;;;;;11.07;9.97;;;;;;;-8.26;92.17;101421.09;5015182;28;20429;-43
2021/12/26 05:08:29;;;;;;;11.23;10.10;;;;;;;-8.30;91.70;101430.75;5014902;28;20451;-44
2021/12/26 05:10:58;;;;;;;11.20;10.27;;;;;;;-8.33;91.63;101427.47;5014766;28;20457;-43
2021/12/26 05:13:26;;;;;;;10.43;9.63;;;;;;;-8.36;91.71;101414.66;5014237;28;20459;-43
2021/12/26 05:15:53;;;;;;;10.90;10.10;;;;;;;-8.40;91.50;101415.69;5014472;28;20472;-43
2021/12/26 05:18:22;;;;;;;10.70;9.70;;;;;;;-8.45;91.48;101421.00;5015041;28;20429;-44
2021/12/26 05:20:50;;;;;;;10.73;9.93;;;;;;;-8.45;91.66;101424.44;5014942;28;20879;-43
2021/12/26 05:23:17;;;;;;;13.77;12.23;;;;;;;-8.48;91.66;101421.97;5014270;28;20899;-43
2021/12/26 05:25:45;;;;;;;11.07;10.00;;;;;;;-8.50;91.56;101426.38;5014689;28;20437;-42
2021/12/26 05:28:15;;;;;;;11.43;10.43;;;;;;;-8.50;91.66;101420.38;5014633;28;20516;-43
2021/12/26 05:30:42;;;;;;;12.20;11.10;;;;;;;-8.51;92.21;101416.94;5014554;28;20552;-42
2021/12/26 05:33:10;;;;;;;13.40;10.47;;;;;;;-8.52;92.08;101419.59;5013874;28;20469;-45
2021/12/26 05:35:38;;;;;;;10.70;9.90;;;;;;;-8.55;92.24;101412.81;5014348;28;20425;-43
2021/12/26 05:38:06;;;;;;;11.60;10.53;;;;;;;-8.58;91.54;101407.75;5013069;28;20463;-43
2021/12/26 05:40:34;;;;;;;10.57;9.87;;;;;;;-8.58;92.06;101407.75;5014332;28;20895;-42
2021/12/26 05:43:01;;;;;;;13.13;11.40;;;;;;;-8.60;91.79;101406.94;5012476;28;20491;-44
2021/12/26 05:45:30;;;;;;;16.30;13.20;;;;;;;-8.62;91.84;101403.59;5014446;28;20436;-43
2021/12/26 05:47:58;;;;;;;14.50;10.47;;;;;;;-8.66;91.89;101404.59;5014280;28;20441;-43
2021/12/26 05:50:26;;;;;;;13.47;12.13;;;;;;;-8.70;91.80;101394.44;5014365;28;20853;-42
2021/12/26 05:52:53;;;;;;;11.63;10.63;;;;;;;-8.72;91.90;101399.66;5010954;28;20537;-43
2021/12/26 05:55:21;;;;;;;10.13;9.37;;;;;;;-8.74;91.96;101398.88;5014118;28;20528;-44
2021/12/26 05:57:49;;;;;;;12.07;10.97;;;;;;;-8.77;91.72;101403.31;5014116;28;20832;-42
2021/12/26 06:00:19;;;;;;;16.60;14.80;;;;;;;-8.78;92.07;101404.25;5014019;28;20479;-47
2021/12/26 06:02:50;;;;;;;13.30;12.00;;;;;;;-8.79;91.78;101407.72;5013611;28;20549;-42
2021/12/26 06:05:19;;;;;;;12.83;11.63;;;;;;;-8.81;92.20;101406.94;5013987;28;20433;-46
2021/12/26 06:07:47;;;;;;;12.07;11.00;;;;;;;-8.80;92.52;101412.03;5013698;28;20443;-46
2021/12/26 06:10:14;;;;;;;12.60;11.30;;;;;;;-8.81;92.38;101415.50;5013424;28;20495;-44
2021/12/26 06:12:42;;;;;;;11.30;10.33;;;;;;;-8.82;92.19;101413.84;5013226;28;20568;-42
2021/12/26 06:15:10;;;;;;;13.00;11.30;;;;;;;-8.83;92.19;101409.56;5010473;28;20456;-44
2021/12/26 06:17:38;;;;;;;11.80;10.67;;;;;;;-8.83;92.29;101413.88;5010805;28;20560;-46
2021/12/26 06:20:13;;;;;;;12.80;11.50;;;;;;;-8.84;91.79;101412.22;4992772;28;20460;-42
2021/12/26 06:22:42;;;;;;;13.20;12.00;;;;;;;-8.87;91.69;101410.59;4991873;28;20481;-45
2021/12/26 06:25:10;;;;;;;12.67;11.43;;;;;;;-8.92;91.83;101409.91;4992426;28;20440;-41
2021/12/26 06:27:38;;;;;;;14.70;13.30;;;;;;;-8.93;91.49;101410.00;4993569;28;20457;-43
2021/12/26 06:30:07;;;;;;;12.77;11.50;;;;;;;-8.96;91.31;101407.50;4994359;28;20840;-41
2021/12/26 06:32:35;;;;;;;12.97;11.67;;;;;;;-9.03;91.43;101410.31;4992267;28;20471;-42
2021/12/26 06:35:03;;;;;;;14.43;12.40;;;;;;;-9.04;91.50;101415.53;4991806;28;20444;-42
2021/12/26 06:37:32;;;;;;;14.80;13.67;;;;;;;-9.06;91.62;101409.59;4992045;28;20476;-42
2021/12/26 06:40:00;;;;;;;15.83;12.63;;;;;;;-9.07;91.78;101406.16;4992232;28;20818;-43
2021/12/26 06:42:30;;;;;;;11.30;10.40;;;;;;;-9.06;91.47;101409.59;4991784;28;20462;-43
2021/12/26 06:44:58;;;;;;;13.47;12.03;;;;;;;-9.08;91.46;101407.03;4991619;28;20442;-44
2021/12/26 06:47:25;;;;;;;14.57;13.27;;;;;;;-9.08;91.74;101411.41;4991630;28;20446;-43
2021/12/26 06:49:53;;;;;;;13.03;11.77;;;;;;;-9.08;91.50;101412.22;4991862;28;21075;-42
2021/12/26 06:52:21;;;;;;;14.07;12.77;;;;;;;-9.09;91.49;101412.28;4991903;28;20462;-42
2021/12/26 06:54:50;;;;;;;13.80;12.60;;;;;;;-9.13;91.66;101415.88;4991145;28;20446;-43
2021/12/26 06:57:18;;;;;;;13.57;12.23;;;;;;;-9.16;91.25;101411.66;4991309;28;20478;-46
2021/12/26 06:59:46;;;;;;;13.37;12.07;;;;;;;-9.17;91.92;101415.13;4991927;28;20462;-42
2021/12/26 07:02:13;;;;;;;14.07;12.80;;;;;;;-9.19;91.61;101411.78;4991586;28;20862;-43
2021/12/26 07:04:41;;;;;;;25.67;17.60;;;;;;;-9.22;91.67;101404.13;4991138;28;21054;-43
2021/12/26 07:07:09;;;;;;;47.10;23.73;;;;;;;-9.24;91.47;101407.66;4990441;28;20811;-42
2021/12/26 07:09:36;;;;;;;34.77;21.60;;;;;;;-9.24;91.71;101407.66;4991797;28;20556;-43
2021/12/26 07:12:07;;;;;;;16.37;14.20;;;;;;;-9.25;91.52;101399.06;4991505;28;20453;-43
2021/12/26 07:14:34;;;;;;;15.20;13.13;;;;;;;-9.28;92.01;101401.78;4991012;28;20429;-42
2021/12/26 07:17:02;;;;;;;14.10;12.33;;;;;;;-9.29;91.58;101407.84;5003422;28;21224;-43
2021/12/26 07:19:30;;;;;;;12.80;11.50;;;;;;;-9.31;91.71;101408.78;5011174;28;20539;-46
2021/12/26 07:21:57;;;;;;;20.97;13.33;;;;;;;-9.30;91.98;101410.47;4986376;28;20492;-42
2021/12/26 07:24:25;;;;;;;19.83;13.70;;;;;;;-9.28;91.92;101419.00;4985894;28;20467;-44
2021/12/26 07:26:53;;;;;;;15.23;13.70;;;;;;;-9.32;91.79;101414.88;5010559;28;20520;-42
2021/12/26 07:29:22;;;;;;;23.43;14.00;;;;;;;-9.34;91.61;101414.91;5010972;28;20458;-43
2021/12/26 07:31:49;;;;;;;15.00;13.33;;;;;;;-9.33;91.64;101420.91;5011019;28;20440;-43
2021/12/26 07:34:17;;;;;;;13.50;12.23;;;;;;;-9.33;91.96;101421.75;5010175;28;20647;-45
2021/12/26 07:36:45;;;;;;;14.30;13.10;;;;;;;-9.32;92.05;101426.03;5010471;28;20469;-42
2021/12/26 07:39:13;;;;;;;14.73;13.17;;;;;;;-9.32;91.87;101428.63;5011463;28;21005;-42
2021/12/26 07:41:40;;;;;;;13.70;12.33;;;;;;;-9.32;91.91;101436.38;5010867;28;20441;-42
2021/12/26 07:44:08;;;;;;;14.83;13.33;;;;;;;-9.33;91.38;101437.25;5010099;28;20470;-42
2021/12/26 07:46:37;;;;;;;15.43;13.90;;;;;;;-9.31;91.67;101432.03;5010462;28;20460;-42
2021/12/26 07:49:05;;;;;;;19.00;14.60;;;;;;;-9.28;91.50;101434.50;5010944;28;20461;-42
2021/12/26 07:51:33;;;;;;;12.97;11.77;;;;;;;-9.25;91.73;101435.25;5011024;28;20437;-43
2021/12/26 07:54:01;;;;;;;13.27;12.13;;;;;;;-9.22;91.60;101436.88;5009713;28;20469;-43
2021/12/26 07:56:29;;;;;;;13.93;12.80;;;;;;;-9.17;91.80;101442.72;5009867;28;20448;-43
2021/12/26 07:58:58;;;;;;;13.63;12.37;;;;;;;-9.14;91.97;101443.44;5010581;28;21021;-44
2021/12/26 08:01:28;;;;;;;13.77;12.37;;;;;;;-9.09;92.18;101443.28;5010865;28;21149;-43
2021/12/26 08:04:00;;;;;;;15.27;13.80;;;;;;;-9.05;91.91;101444.88;5010163;28;20473;-44
2021/12/26 08:06:30;;;;;;;14.30;12.80;;;;;;;-9.00;91.91;101445.53;5013439;28;20421;-45
2021/12/26 08:08:57;;;;;;;16.23;13.30;;;;;;;-8.98;91.41;101447.16;4989489;28;20475;-42
2021/12/26 08:11:25;;;;;;;15.03;13.67;;;;;;;-8.93;91.25;101449.59;4990035;28;20472;-42
2021/12/26 08:13:53;;;;;;;14.50;13.10;;;;;;;-8.87;91.58;101458.88;5014501;28;20830;-43
2021/12/26 08:16:21;;;;;;;13.90;12.80;;;;;;;-8.84;91.12;101463.91;5013958;28;20445;-43
2021/12/26 08:18:48;;;;;;;13.10;12.00;;;;;;;-8.83;91.21;101461.25;5014391;28;20485;-44
2021/12/26 08:21:17;;;;;;;13.20;11.97;;;;;;;-8.79;91.29;101459.41;5014257;28;20441;-45
2021/12/26 08:23:45;;;;;;;24.37;16.23;;;;;;;-8.76;91.11;101457.56;5013777;28;20880;-42
2021/12/26 08:26:13;;;;;;;14.07;12.77;;;;;;;-8.74;90.94;101455.75;5013739;28;20428;-44
2021/12/26 08:28:41;;;;;;;15.87;14.07;;;;;;;-8.73;90.21;101454.88;5014471;28;20524;-43
2021/12/26 08:31:10;;;;;;;14.10;12.80;;;;;;;-8.69;90.60;101453.00;5014266;28;20476;-44
2021/12/26 08:33:38;;;;;;;14.70;13.20;;;;;;;-8.63;90.72;101452.78;5013649;28;20835;-42
2021/12/26 08:36:06;;;;;;;13.50;12.17;;;;;;;-8.56;90.96;101455.06;5013528;28;20807;-42
2021/12/26 08:38:35;;;;;;;14.00;12.30;;;;;;;-8.50;90.52;101453.97;5014234;28;20479;-43
2021/12/26 08:41:03;;;;;;;14.40;13.10;;;;;;;-8.44;90.48;101459.78;5013984;28;20453;-42
2021/12/26 08:43:31;;;;;;;14.03;12.60;;;;;;;-8.34;90.84;101464.59;5008384;28;20497;-44
2021/12/26 08:45:58;;;;;;;14.77;11.93;;;;;;;-8.34;89.91;101462.00;5012163;28;20437;-44
2021/12/26 08:48:26;;;;;;;18.43;12.50;;;;;;;-8.27;90.07;101464.25;5012459;28;20433;-43
2021/12/26 08:50:55;;;;;;;14.67;13.23;;;;;;;-8.23;90.15;101467.56;5013598;28;20457;-44
2021/12/26 08:53:24;;;;;;;14.47;12.97;;;;;;;-8.17;90.20;101472.50;5013156;28;20466;-46
2021/12/26 08:55:54;;;;;;;15.37;13.27;;;;;;;-8.10;90.35;101473.94;5013323;28;20429;-47
2021/12/26 08:58:22;;;;;;;16.80;13.37;;;;;;;-8.04;90.23;101466.78;4983482;28;20495;-44
2021/12/26 09:00:50;;;;;;;13.17;11.73;;;;;;;-7.96;90.09;101472.50;4986715;28;20449;-45
2021/12/26 09:03:18;;;;;;;14.00;12.60;;;;;;;-7.82;90.09;101473.69;5013360;28;20875;-43
2021/12/26 09:05:46;;;;;;;14.70;13.23;;;;;;;-7.67;90.58;101470.44;5013331;28;20444;-43
2021/12/26 09:08:14;;;;;;;15.73;14.33;;;;;;;-7.50;91.19;101473.19;5014100;28;20513;-44
2021/12/26 09:10:42;;;;;;;16.00;13.80;;;;;;;-7.36;91.41;101476.88;5014126;28;20476;-44
2021/12/26 09:13:11;;;;;;;16.30;14.70;;;;;;;-7.18;91.56;101479.59;5013163;28;20524;-42
2021/12/26 09:15:39;;;;;;;15.07;13.47;;;;;;;-7.02;91.90;101467.66;5012555;28;20524;-46
2021/12/26 09:18:07;;;;;;;13.90;12.80;;;;;;;-6.87;91.81;101465.22;5005367;28;20469;-43
2021/12/26 09:20:35;;;;;;;16.03;13.33;;;;;;;-6.71;92.09;101465.38;5013139;28;20475;-43
2021/12/26 09:23:04;;;;;;;13.40;12.40;;;;;;;-6.55;91.52;101465.50;5013233;28;20480;-44
2021/12/26 09:25:32;;;;;;;14.17;12.70;;;;;;;-6.44;91.27;101466.69;5012897;28;20445;-45
2021/12/26 09:28:00;;;;;;;13.83;12.43;;;;;;;-6.30;91.44;101472.09;5012955;28;20425;-46
2021/12/26 09:30:30;;;;;;;13.30;12.20;;;;;;;-6.16;91.33;101463.66;5012834;28;20477;-43
2021/12/26 09:32:57;;;;;;;12.50;11.23;;;;;;;-6.06;91.13;101464.88;5012699;28;20956;-43
2021/12/26 09:35:25;;;;;;;13.40;12.43;;;;;;;-5.92;91.03;101465.09;5011691;28;20448;-46
2021/12/26 09:37:53;;;;;;;12.93;11.93;;;;;;;-5.83;90.49;101456.81;5011939;28;20952;-43
2021/12/26 09:40:20;;;;;;;15.70;13.40;;;;;;;-5.69;90.76;101459.56;5010925;28;20502;-45
2021/12/26 09:42:49;;;;;;;15.73;14.17;;;;;;;-5.53;90.90;101456.19;5011470;28;20443;-48
2021/12/26 09:45:18;;;;;;;13.33;12.13;;;;;;;-5.41;90.40;101458.19;5010537;28;21005;-46
2021/12/26 09:47:49;;;;;;;15.37;13.80;;;;;;;-5.27;90.32;101459.16;5011020;28;20437;-45
2021/12/26 09:50:20;;;;;;;13.40;12.00;;;;;;;-5.14;90.46;101454.19;5011101;28;20493;-47
2021/12/26 09:52:49;;;;;;;13.40;12.30;;;;;;;-5.03;90.20;101449.25;5011681;28;20488;-43
2021/12/26 09:55:17;;;;;;;15.00;13.67;;;;;;;-4.91;89.72;101455.56;5011482;28;20531;-44
2021/12/26 09:57:45;;;;;;;14.43;12.97;;;;;;;-4.80;89.86;101458.44;5011556;28;20434;-43
2021/12/26 10:00:25;;;;;;;16.33;15.00;;;;;;;-4.67;89.58;101449.91;5011178;28;20479;-45
2021/12/26 10:03:13;;;;;;;14.57;13.40;;;;;;;-4.52;89.43;101445.63;5010565;28;20817;-43
2021/12/26 10:06:12;;;;;;;14.67;13.47;;;;;;;-4.39;89.06;101440.59;5010929;28;21342;-45
2021/12/26 10:08:58;;;;;;;13.63;12.57;;;;;;;-4.24;88.66;101437.97;5011129;28;20421;-42
2021/12/26 10:11:28;;;;;;;16.47;14.47;;;;;;;-4.14;88.03;101441.75;5010787;28;20515;-42
2021/12/26 10:13:58;;;;;;;16.27;14.87;;;;;;;-4.01;87.82;101434.09;5011763;28;21015;-43
2021/12/26 10:16:28;;;;;;;16.47;14.87;;;;;;;-3.91;87.07;101436.06;5011470;28;20441;-43
2021/12/26 10:18:58;;;;;;;17.30;15.90;;;;;;;-3.81;86.70;101436.38;5011475;28;20476;-44
2021/12/26 10:21:29;;;;;;;15.80;14.20;;;;;;;-3.72;86.11;101428.03;5009793;28;20465;-44
2021/12/26 10:23:59;;;;;;;18.07;16.40;;;;;;;-3.61;85.91;101428.25;5009261;28;20508;-43
2021/12/26 10:26:29;;;;;;;15.50;14.07;;;;;;;-3.56;84.68;101422.78;5009022;28;21127;-44
2021/12/26 10:29:30;;;;;;;14.57;13.30;;;;;;;-3.50;83.25;101423.25;5009352;28;20459;-43
2021/12/26 10:32:03;;;;;;;15.23;13.73;;;;;;;-3.40;82.06;101420.94;5009468;28;20441;-45
2021/12/26 10:34:36;;;;;;;15.23;13.60;;;;;;;-3.28;81.94;101417.59;5008902;28;20441;-44
2021/12/26 10:37:06;;;;;;;14.80;13.47;;;;;;;-3.18;82.08;101418.72;5008622;28;20443;-42
2021/12/26 10:39:37;;;;;;;15.47;13.60;;;;;;;-3.06;81.52;101418.00;5009220;28;20499;-42
2021/12/26 10:42:07;;;;;;;14.87;13.53;;;;;;;-2.97;80.52;101417.44;5009829;28;20790;-42
2021/12/26 10:44:40;;;;;;;16.13;13.17;;;;;;;-2.91;80.44;101409.22;5008405;28;20444;-42
2021/12/26 10:47:10;;;;;;;13.40;12.20;;;;;;;-2.87;80.33;101412.50;5008815;28;20507;-42
2021/12/26 10:49:43;;;;;;;13.80;12.67;;;;;;;-2.86;80.47;101412.38;5008905;28;20540;-45
2021/12/26 10:52:16;;;;;;;12.33;11.37;;;;;;;-2.78;81.22;101419.75;5009786;28;20799;-44
2021/12/26 10:54:49;;;;;;;12.83;11.83;;;;;;;-2.69;81.70;101418.34;5010065;28;20435;-43
2021/12/26 10:57:20;;;;;;;13.80;12.80;;;;;;;-2.66;82.02;101419.00;5012955;28;20430;-45
2021/12/26 10:59:58;;;;;;;12.43;11.43;;;;;;;-2.67;82.40;101408.63;5012370;28;20577;-46
2021/12/26 11:02:29;;;;;;;11.50;10.50;;;;;;;-2.60;83.18;101409.94;5012955;28;20953;-42
2021/12/26 11:05:03;;;;;;;11.60;10.60;;;;;;;-2.53;83.21;101411.19;5013013;28;20532;-43
2021/12/26 11:07:39;;;;;;;12.73;11.43;;;;;;;-2.47;83.50;101416.88;5012870;28;20533;-46
2021/12/26 11:10:11;;;;;;;11.80;10.90;;;;;;;-2.40;83.24;101414.72;5012246;28;20469;-44
2021/12/26 11:12:43;;;;;;;12.00;11.00;;;;;;;-2.45;82.02;101408.97;5012602;28;20435;-42
2021/12/26 11:15:12;;;;;;;13.10;11.80;;;;;;;-2.41;82.22;101399.97;5012892;28;20459;-43
2021/12/26 11:17:44;;;;;;;13.07;11.87;;;;;;;-2.50;79.70;101411.00;5012685;28;20525;-44
2021/12/26 11:20:36;;;;;;;12.83;11.37;;;;;;;-2.50;78.42;101404.03;5012195;28;20508;-46
2021/12/26 11:23:09;;;;;;;13.10;12.17;;;;;;;-2.48;78.19;101407.38;5008502;28;20528;-50